sensor_id;sensor_type;location;lat;lon;timestamp;P1;durP1;ratioP1;P2;durP2;ratioP2
14181;SDS011;7171;50.936;6.764;2024-03-08T00:01:33;14.93;;;5.43;;
14181;SDS011;7171;50.936;6.764;2024-03-08T00:04:00;10.47;;;6.87;;
14181;SDS011;7171;50.936;6.764;2024-03-08T00:06:26;11.70;;;7.13;;
14181;SDS011;7171;50.936;6.764;2024-03-08T00:08:53;9.73;;;6.47;;
14181;SDS011;7171;50.936;6.764;2024-03-08T00:11:22;10.33;;;6.67;;
14181;SDS011;7171;50.936;6.764;2024-03-08T00:13:50;8.60;;;6.50;;
14181;SDS011;7171;50.936;6.764;2024-03-08T00:16:18;8.80;;;6.47;;
14181;SDS011;7171;50.936;6.764;2024-03-08T00:18:45;12.30;;;7.17;;
14181;SDS011;7171;50.936;6.764;2024-03-08T00:21:12;12.73;;;6.43;;
14181;SDS011;7171;50.936;6.764;2024-03-08T00:23:40;10.53;;;7.60;;
14181;SDS011;7171;50.936;6.764;2024-03-08T00:26:07;8.87;;;6.63;;
14181;SDS011;7171;50.936;6.764;2024-03-08T00:28:35;10.77;;;6.93;;
14181;SDS011;7171;50.936;6.764;2024-03-08T00:31:02;8.27;;;6.27;;
14181;SDS011;7171;50.936;6.764;2024-03-08T00:33:29;8.10;;;7.07;;
14181;SDS011;7171;50.936;6.764;2024-03-08T00:35:56;11.17;;;7.80;;
14181;SDS011;7171;50.936;6.764;2024-03-08T00:38:23;11.03;;;7.03;;
14181;SDS011;7171;50.936;6.764;2024-03-08T00:40:49;11.07;;;7.40;;
14181;SDS011;7171;50.936;6.764;2024-03-08T00:43:16;8.70;;;6.50;;
14181;SDS011;7171;50.936;6.764;2024-03-08T00:45:44;11.47;;;7.20;;
14181;SDS011;7171;50.936;6.764;2024-03-08T00:48:11;9.27;;;6.43;;
14181;SDS011;7171;50.936;6.764;2024-03-08T00:50:37;9.90;;;6.57;;
14181;SDS011;7171;50.936;6.764;2024-03-08T00:53:04;10.07;;;6.10;;
14181;SDS011;7171;50.936;6.764;2024-03-08T00:55:31;9.67;;;6.67;;
14181;SDS011;7171;50.936;6.764;2024-03-08T00:57:58;7.73;;;6.10;;
14181;SDS011;7171;50.936;6.764;2024-03-08T01:00:25;11.00;;;7.00;;
14181;SDS011;7171;50.936;6.764;2024-03-08T01:02:53;10.97;;;7.13;;
14181;SDS011;7171;50.936;6.764;2024-03-08T01:05:19;9.90;;;6.50;;
14181;SDS011;7171;50.936;6.764;2024-03-08T01:07:46;10.93;;;7.70;;
14181;SDS011;7171;50.936;6.764;2024-03-08T01:10:13;9.23;;;6.67;;
14181;SDS011;7171;50.936;6.764;2024-03-08T01:12:39;8.60;;;6.23;;
14181;SDS011;7171;50.936;6.764;2024-03-08T01:15:08;11.40;;;7.50;;
14181;SDS011;7171;50.936;6.764;2024-03-08T01:17:35;10.67;;;7.60;;
14181;SDS011;7171;50.936;6.764;2024-03-08T01:20:04;9.17;;;6.77;;
14181;SDS011;7171;50.936;6.764;2024-03-08T01:22:32;11.17;;;7.20;;
14181;SDS011;7171;50.936;6.764;2024-03-08T01:24:59;9.13;;;6.33;;
14181;SDS011;7171;50.936;6.764;2024-03-08T01:27:25;13.00;;;7.00;;
14181;SDS011;7171;50.936;6.764;2024-03-08T01:29:52;10.97;;;6.57;;
14181;SDS011;7171;50.936;6.764;2024-03-08T01:32:19;8.20;;;6.57;;
14181;SDS011;7171;50.936;6.764;2024-03-08T01:34:48;9.17;;;7.20;;
14181;SDS011;7171;50.936;6.764;2024-03-08T01:37:16;8.93;;;5.97;;
14181;SDS011;7171;50.936;6.764;2024-03-08T01:39:42;13.97;;;6.97;;
14181;SDS011;7171;50.936;6.764;2024-03-08T01:42:09;8.73;;;6.67;;
14181;SDS011;7171;50.936;6.764;2024-03-08T01:44:36;14.00;;;7.70;;
14181;SDS011;7171;50.936;6.764;2024-03-08T01:47:04;13.17;;;8.13;;
14181;SDS011;7171;50.936;6.764;2024-03-08T01:49:31;9.80;;;6.50;;
14181;SDS011;7171;50.936;6.764;2024-03-08T01:51:58;12.53;;;7.27;;
14181;SDS011;7171;50.936;6.764;2024-03-08T01:54:26;10.73;;;7.30;;
14181;SDS011;7171;50.936;6.764;2024-03-08T01:56:53;10.77;;;7.20;;
14181;SDS011;7171;50.936;6.764;2024-03-08T01:59:20;10.90;;;5.90;;
14181;SDS011;7171;50.936;6.764;2024-03-08T02:01:46;10.23;;;6.30;;
14181;SDS011;7171;50.936;6.764;2024-03-08T02:04:13;11.50;;;6.70;;
14181;SDS011;7171;50.936;6.764;2024-03-08T02:06:41;10.20;;;7.07;;
14181;SDS011;7171;50.936;6.764;2024-03-08T02:09:08;10.07;;;6.50;;
14181;SDS011;7171;50.936;6.764;2024-03-08T02:11:36;9.97;;;5.90;;
14181;SDS011;7171;50.936;6.764;2024-03-08T02:14:03;10.23;;;6.93;;
14181;SDS011;7171;50.936;6.764;2024-03-08T02:16:31;10.43;;;7.03;;
14181;SDS011;7171;50.936;6.764;2024-03-08T02:18:58;11.43;;;7.23;;
14181;SDS011;7171;50.936;6.764;2024-03-08T02:21:26;11.87;;;7.23;;
14181;SDS011;7171;50.936;6.764;2024-03-08T02:23:53;12.50;;;7.67;;
14181;SDS011;7171;50.936;6.764;2024-03-08T02:26:20;10.67;;;7.00;;
14181;SDS011;7171;50.936;6.764;2024-03-08T02:28:47;11.53;;;7.20;;
14181;SDS011;7171;50.936;6.764;2024-03-08T02:31:14;8.27;;;6.37;;
14181;SDS011;7171;50.936;6.764;2024-03-08T02:33:41;10.80;;;7.60;;
14181;SDS011;7171;50.936;6.764;2024-03-08T02:36:08;10.70;;;6.57;;
14181;SDS011;7171;50.936;6.764;2024-03-08T02:38:36;14.90;;;8.07;;
14181;SDS011;7171;50.936;6.764;2024-03-08T02:41:03;11.20;;;7.60;;
14181;SDS011;7171;50.936;6.764;2024-03-08T02:43:30;12.17;;;7.33;;
14181;SDS011;7171;50.936;6.764;2024-03-08T02:45:57;11.93;;;7.43;;
14181;SDS011;7171;50.936;6.764;2024-03-08T02:48:24;12.13;;;8.23;;
14181;SDS011;7171;50.936;6.764;2024-03-08T02:50:51;10.97;;;7.00;;
14181;SDS011;7171;50.936;6.764;2024-03-08T02:53:18;12.03;;;7.17;;
14181;SDS011;7171;50.936;6.764;2024-03-08T02:55:46;9.83;;;6.97;;
14181;SDS011;7171;50.936;6.764;2024-03-08T02:58:13;11.87;;;7.70;;
14181;SDS011;7171;50.936;6.764;2024-03-08T03:00:40;13.10;;;7.87;;
14181;SDS011;7171;50.936;6.764;2024-03-08T03:03:09;10.00;;;6.17;;
14181;SDS011;7171;50.936;6.764;2024-03-08T03:05:36;11.97;;;7.50;;
14181;SDS011;7171;50.936;6.764;2024-03-08T03:08:03;10.87;;;6.63;;
14181;SDS011;7171;50.936;6.764;2024-03-08T03:10:33;9.13;;;6.47;;
14181;SDS011;7171;50.936;6.764;2024-03-08T03:13:02;11.47;;;7.07;;
14181;SDS011;7171;50.936;6.764;2024-03-08T03:15:30;11.87;;;7.87;;
14181;SDS011;7171;50.936;6.764;2024-03-08T03:17:58;12.63;;;7.07;;
14181;SDS011;7171;50.936;6.764;2024-03-08T03:20:26;9.60;;;6.90;;
14181;SDS011;7171;50.936;6.764;2024-03-08T03:22:57;13.60;;;7.87;;
14181;SDS011;7171;50.936;6.764;2024-03-08T03:25:26;10.57;;;7.20;;
14181;SDS011;7171;50.936;6.764;2024-03-08T03:27:58;9.13;;;6.33;;
14181;SDS011;7171;50.936;6.764;2024-03-08T03:30:26;10.80;;;7.60;;
14181;SDS011;7171;50.936;6.764;2024-03-08T03:32:58;9.50;;;6.13;;
14181;SDS011;7171;50.936;6.764;2024-03-08T03:35:25;15.50;;;7.53;;
14181;SDS011;7171;50.936;6.764;2024-03-08T03:37:52;8.73;;;6.23;;
14181;SDS011;7171;50.936;6.764;2024-03-08T03:40:27;10.17;;;7.57;;
14181;SDS011;7171;50.936;6.764;2024-03-08T03:42:54;10.63;;;6.63;;
14181;SDS011;7171;50.936;6.764;2024-03-08T03:45:21;12.57;;;7.97;;
14181;SDS011;7171;50.936;6.764;2024-03-08T03:47:49;14.70;;;7.97;;
14181;SDS011;7171;50.936;6.764;2024-03-08T03:50:17;10.50;;;7.10;;
14181;SDS011;7171;50.936;6.764;2024-03-08T03:52:44;11.87;;;7.90;;
14181;SDS011;7171;50.936;6.764;2024-03-08T03:55:11;11.50;;;7.13;;
14181;SDS011;7171;50.936;6.764;2024-03-08T03:57:38;14.47;;;7.23;;
14181;SDS011;7171;50.936;6.764;2024-03-08T04:00:06;12.10;;;8.30;;
14181;SDS011;7171;50.936;6.764;2024-03-08T04:02:35;11.70;;;7.13;;
14181;SDS011;7171;50.936;6.764;2024-03-08T04:05:06;10.17;;;7.53;;
14181;SDS011;7171;50.936;6.764;2024-03-08T04:07:34;13.87;;;7.47;;
14181;SDS011;7171;50.936;6.764;2024-03-08T04:10:04;9.87;;;7.00;;
14181;SDS011;7171;50.936;6.764;2024-03-08T04:12:34;12.17;;;7.00;;
14181;SDS011;7171;50.936;6.764;2024-03-08T04:15:02;9.43;;;7.30;;
14181;SDS011;7171;50.936;6.764;2024-03-08T04:17:29;14.43;;;7.73;;
14181;SDS011;7171;50.936;6.764;2024-03-08T04:19:57;11.93;;;6.70;;
14181;SDS011;7171;50.936;6.764;2024-03-08T04:22:25;13.47;;;8.53;;
14181;SDS011;7171;50.936;6.764;2024-03-08T04:24:53;16.80;;;8.00;;
14181;SDS011;7171;50.936;6.764;2024-03-08T04:27:20;9.83;;;6.73;;
14181;SDS011;7171;50.936;6.764;2024-03-08T04:29:47;13.83;;;7.90;;
14181;SDS011;7171;50.936;6.764;2024-03-08T04:32:13;11.47;;;7.40;;
14181;SDS011;7171;50.936;6.764;2024-03-08T04:34:40;11.00;;;7.53;;
14181;SDS011;7171;50.936;6.764;2024-03-08T04:37:07;15.47;;;7.50;;
14181;SDS011;7171;50.936;6.764;2024-03-08T04:39:37;11.43;;;7.10;;
14181;SDS011;7171;50.936;6.764;2024-03-08T04:42:04;11.10;;;7.13;;
14181;SDS011;7171;50.936;6.764;2024-03-08T04:44:34;13.13;;;7.87;;
14181;SDS011;7171;50.936;6.764;2024-03-08T04:47:01;11.07;;;7.80;;
14181;SDS011;7171;50.936;6.764;2024-03-08T04:49:29;9.47;;;6.50;;
14181;SDS011;7171;50.936;6.764;2024-03-08T04:51:55;13.70;;;8.40;;
14181;SDS011;7171;50.936;6.764;2024-03-08T04:54:22;12.47;;;7.70;;
14181;SDS011;7171;50.936;6.764;2024-03-08T04:56:50;9.40;;;6.63;;
14181;SDS011;7171;50.936;6.764;2024-03-08T04:59:17;12.30;;;7.67;;
14181;SDS011;7171;50.936;6.764;2024-03-08T05:01:44;10.57;;;7.20;;
14181;SDS011;7171;50.936;6.764;2024-03-08T05:04:10;10.47;;;7.63;;
14181;SDS011;7171;50.936;6.764;2024-03-08T05:06:37;10.53;;;7.40;;
14181;SDS011;7171;50.936;6.764;2024-03-08T05:09:04;10.37;;;6.47;;
14181;SDS011;7171;50.936;6.764;2024-03-08T05:11:38;10.13;;;6.77;;
14181;SDS011;7171;50.936;6.764;2024-03-08T05:14:06;11.93;;;8.17;;
14181;SDS011;7171;50.936;6.764;2024-03-08T05:16:33;10.90;;;7.60;;
14181;SDS011;7171;50.936;6.764;2024-03-08T05:19:00;11.60;;;6.97;;
14181;SDS011;7171;50.936;6.764;2024-03-08T05:21:27;12.70;;;6.77;;
14181;SDS011;7171;50.936;6.764;2024-03-08T05:23:54;12.57;;;7.03;;
14181;SDS011;7171;50.936;6.764;2024-03-08T05:26:21;11.00;;;7.10;;
14181;SDS011;7171;50.936;6.764;2024-03-08T05:28:48;10.00;;;7.47;;
14181;SDS011;7171;50.936;6.764;2024-03-08T05:31:19;12.23;;;8.33;;
14181;SDS011;7171;50.936;6.764;2024-03-08T05:33:48;11.90;;;7.87;;
14181;SDS011;7171;50.936;6.764;2024-03-08T05:36:15;10.93;;;7.23;;
14181;SDS011;7171;50.936;6.764;2024-03-08T05:38:42;9.47;;;6.10;;
14181;SDS011;7171;50.936;6.764;2024-03-08T05:41:09;15.30;;;7.40;;
14181;SDS011;7171;50.936;6.764;2024-03-08T05:43:36;11.67;;;6.83;;
14181;SDS011;7171;50.936;6.764;2024-03-08T05:46:03;13.07;;;6.60;;
14181;SDS011;7171;50.936;6.764;2024-03-08T05:48:31;10.40;;;6.67;;
14181;SDS011;7171;50.936;6.764;2024-03-08T05:50:59;11.40;;;7.90;;
14181;SDS011;7171;50.936;6.764;2024-03-08T05:53:26;8.57;;;6.47;;
14181;SDS011;7171;50.936;6.764;2024-03-08T05:55:56;13.60;;;7.40;;
14181;SDS011;7171;50.936;6.764;2024-03-08T05:58:23;11.63;;;7.90;;
14181;SDS011;7171;50.936;6.764;2024-03-08T06:00:50;11.27;;;7.23;;
14181;SDS011;7171;50.936;6.764;2024-03-08T06:03:16;14.63;;;8.23;;
14181;SDS011;7171;50.936;6.764;2024-03-08T06:05:47;11.40;;;7.77;;
14181;SDS011;7171;50.936;6.764;2024-03-08T06:08:14;11.80;;;7.23;;
14181;SDS011;7171;50.936;6.764;2024-03-08T06:10:41;9.20;;;7.23;;
14181;SDS011;7171;50.936;6.764;2024-03-08T06:13:08;11.57;;;6.80;;
14181;SDS011;7171;50.936;6.764;2024-03-08T06:15:37;12.10;;;8.10;;
14181;SDS011;7171;50.936;6.764;2024-03-08T06:18:03;11.97;;;7.20;;
14181;SDS011;7171;50.936;6.764;2024-03-08T06:20:31;12.13;;;7.47;;
14181;SDS011;7171;50.936;6.764;2024-03-08T06:22:59;13.27;;;8.53;;
14181;SDS011;7171;50.936;6.764;2024-03-08T06:25:26;17.13;;;8.33;;
14181;SDS011;7171;50.936;6.764;2024-03-08T06:27:53;11.40;;;6.83;;
14181;SDS011;7171;50.936;6.764;2024-03-08T06:30:19;14.60;;;8.50;;
14181;SDS011;7171;50.936;6.764;2024-03-08T06:32:46;10.93;;;7.67;;
14181;SDS011;7171;50.936;6.764;2024-03-08T06:35:13;12.73;;;6.80;;
14181;SDS011;7171;50.936;6.764;2024-03-08T06:37:40;13.07;;;8.20;;
14181;SDS011;7171;50.936;6.764;2024-03-08T06:40:11;13.23;;;8.27;;
14181;SDS011;7171;50.936;6.764;2024-03-08T06:42:39;12.30;;;7.47;;
14181;SDS011;7171;50.936;6.764;2024-03-08T06:45:06;11.40;;;7.27;;
14181;SDS011;7171;50.936;6.764;2024-03-08T06:47:35;15.13;;;9.00;;
14181;SDS011;7171;50.936;6.764;2024-03-08T06:50:02;13.03;;;7.53;;
14181;SDS011;7171;50.936;6.764;2024-03-08T06:52:30;15.87;;;7.83;;
14181;SDS011;7171;50.936;6.764;2024-03-08T06:54:58;9.73;;;7.60;;
14181;SDS011;7171;50.936;6.764;2024-03-08T06:57:28;12.43;;;6.90;;
14181;SDS011;7171;50.936;6.764;2024-03-08T06:59:54;13.00;;;7.57;;
14181;SDS011;7171;50.936;6.764;2024-03-08T07:02:22;11.40;;;8.10;;
14181;SDS011;7171;50.936;6.764;2024-03-08T07:04:49;13.30;;;8.13;;
14181;SDS011;7171;50.936;6.764;2024-03-08T07:07:16;18.20;;;8.27;;
14181;SDS011;7171;50.936;6.764;2024-03-08T07:09:45;11.37;;;7.27;;
14181;SDS011;7171;50.936;6.764;2024-03-08T07:12:14;15.00;;;8.80;;
14181;SDS011;7171;50.936;6.764;2024-03-08T07:14:42;9.57;;;7.53;;
14181;SDS011;7171;50.936;6.764;2024-03-08T07:17:10;14.17;;;7.77;;
14181;SDS011;7171;50.936;6.764;2024-03-08T07:19:37;11.37;;;7.33;;
14181;SDS011;7171;50.936;6.764;2024-03-08T07:22:04;13.23;;;9.07;;
14181;SDS011;7171;50.936;6.764;2024-03-08T07:24:33;15.73;;;7.30;;
14181;SDS011;7171;50.936;6.764;2024-03-08T07:27:17;11.80;;;8.60;;
14181;SDS011;7171;50.936;6.764;2024-03-08T07:29:45;14.23;;;8.23;;
14181;SDS011;7171;50.936;6.764;2024-03-08T07:32:11;13.20;;;8.67;;
14181;SDS011;7171;50.936;6.764;2024-03-08T07:34:46;17.53;;;8.27;;
14181;SDS011;7171;50.936;6.764;2024-03-08T07:37:13;12.10;;;7.90;;
14181;SDS011;7171;50.936;6.764;2024-03-08T07:39:40;11.47;;;7.97;;
14181;SDS011;7171;50.936;6.764;2024-03-08T07:42:07;11.20;;;8.63;;
14181;SDS011;7171;50.936;6.764;2024-03-08T07:44:33;13.97;;;8.37;;
14181;SDS011;7171;50.936;6.764;2024-03-08T07:47:01;11.07;;;7.30;;
14181;SDS011;7171;50.936;6.764;2024-03-08T07:49:28;11.80;;;7.73;;
14181;SDS011;7171;50.936;6.764;2024-03-08T07:51:55;10.63;;;7.50;;
14181;SDS011;7171;50.936;6.764;2024-03-08T07:54:22;11.87;;;8.23;;
14181;SDS011;7171;50.936;6.764;2024-03-08T07:56:50;19.93;;;8.53;;
14181;SDS011;7171;50.936;6.764;2024-03-08T07:59:17;16.97;;;8.80;;
14181;SDS011;7171;50.936;6.764;2024-03-08T08:01:46;13.57;;;8.77;;
14181;SDS011;7171;50.936;6.764;2024-03-08T08:04:14;14.70;;;9.03;;
14181;SDS011;7171;50.936;6.764;2024-03-08T08:06:43;12.07;;;8.43;;
14181;SDS011;7171;50.936;6.764;2024-03-08T08:09:09;17.77;;;9.97;;
14181;SDS011;7171;50.936;6.764;2024-03-08T08:11:39;12.67;;;8.47;;
14181;SDS011;7171;50.936;6.764;2024-03-08T08:14:08;14.27;;;8.50;;
14181;SDS011;7171;50.936;6.764;2024-03-08T08:16:35;14.73;;;8.73;;
14181;SDS011;7171;50.936;6.764;2024-03-08T08:19:02;14.97;;;7.37;;
14181;SDS011;7171;50.936;6.764;2024-03-08T08:21:33;12.37;;;7.87;;
14181;SDS011;7171;50.936;6.764;2024-03-08T08:24:01;11.33;;;8.53;;
14181;SDS011;7171;50.936;6.764;2024-03-08T08:26:28;12.70;;;8.70;;
14181;SDS011;7171;50.936;6.764;2024-03-08T08:28:55;11.83;;;8.00;;
14181;SDS011;7171;50.936;6.764;2024-03-08T08:31:22;13.63;;;7.77;;
14181;SDS011;7171;50.936;6.764;2024-03-08T08:33:48;18.97;;;8.97;;
14181;SDS011;7171;50.936;6.764;2024-03-08T08:36:15;17.33;;;8.37;;
14181;SDS011;7171;50.936;6.764;2024-03-08T08:38:44;13.40;;;8.53;;
14181;SDS011;7171;50.936;6.764;2024-03-08T08:41:11;11.93;;;7.43;;
14181;SDS011;7171;50.936;6.764;2024-03-08T08:43:38;13.10;;;7.90;;
14181;SDS011;7171;50.936;6.764;2024-03-08T08:46:08;12.97;;;7.97;;
14181;SDS011;7171;50.936;6.764;2024-03-08T08:48:38;16.57;;;8.13;;
14181;SDS011;7171;50.936;6.764;2024-03-08T08:51:06;11.60;;;7.77;;
14181;SDS011;7171;50.936;6.764;2024-03-08T08:53:32;12.90;;;7.40;;
14181;SDS011;7171;50.936;6.764;2024-03-08T08:56:01;12.83;;;7.87;;
14181;SDS011;7171;50.936;6.764;2024-03-08T08:58:28;10.80;;;7.80;;
14181;SDS011;7171;50.936;6.764;2024-03-08T09:00:55;10.73;;;6.80;;
14181;SDS011;7171;50.936;6.764;2024-03-08T09:03:22;12.10;;;7.07;;
14181;SDS011;7171;50.936;6.764;2024-03-08T09:05:49;11.73;;;7.80;;
14181;SDS011;7171;50.936;6.764;2024-03-08T09:08:16;13.03;;;7.57;;
14181;SDS011;7171;50.936;6.764;2024-03-08T09:10:42;14.20;;;8.30;;
14181;SDS011;7171;50.936;6.764;2024-03-08T09:13:10;11.47;;;8.10;;
14181;SDS011;7171;50.936;6.764;2024-03-08T09:15:39;14.67;;;7.87;;
14181;SDS011;7171;50.936;6.764;2024-03-08T09:18:06;12.80;;;7.57;;
14181;SDS011;7171;50.936;6.764;2024-03-08T09:20:34;12.07;;;7.30;;
14181;SDS011;7171;50.936;6.764;2024-03-08T09:23:01;14.87;;;8.23;;
14181;SDS011;7171;50.936;6.764;2024-03-08T09:25:29;14.10;;;8.23;;
14181;SDS011;7171;50.936;6.764;2024-03-08T09:27:55;14.80;;;7.93;;
14181;SDS011;7171;50.936;6.764;2024-03-08T09:30:23;11.47;;;7.67;;
14181;SDS011;7171;50.936;6.764;2024-03-08T09:32:50;18.00;;;7.90;;
14181;SDS011;7171;50.936;6.764;2024-03-08T09:35:17;11.80;;;6.93;;
14181;SDS011;7171;50.936;6.764;2024-03-08T09:37:44;9.73;;;6.97;;
14181;SDS011;7171;50.936;6.764;2024-03-08T09:40:12;10.47;;;7.00;;
14181;SDS011;7171;50.936;6.764;2024-03-08T09:42:40;10.10;;;6.97;;
14181;SDS011;7171;50.936;6.764;2024-03-08T09:45:08;7.90;;;6.13;;
14181;SDS011;7171;50.936;6.764;2024-03-08T09:47:37;10.40;;;7.07;;
14181;SDS011;7171;50.936;6.764;2024-03-08T09:50:06;10.10;;;6.73;;
14181;SDS011;7171;50.936;6.764;2024-03-08T09:52:34;14.07;;;7.57;;
14181;SDS011;7171;50.936;6.764;2024-03-08T09:55:02;14.33;;;6.53;;
14181;SDS011;7171;50.936;6.764;2024-03-08T09:57:31;11.57;;;6.63;;
14181;SDS011;7171;50.936;6.764;2024-03-08T09:59:58;10.27;;;6.97;;
14181;SDS011;7171;50.936;6.764;2024-03-08T10:02:25;11.70;;;7.93;;
14181;SDS011;7171;50.936;6.764;2024-03-08T10:04:53;8.47;;;5.37;;
14181;SDS011;7171;50.936;6.764;2024-03-08T10:07:19;10.17;;;6.93;;
14181;SDS011;7171;50.936;6.764;2024-03-08T10:09:46;10.03;;;6.43;;
14181;SDS011;7171;50.936;6.764;2024-03-08T10:12:15;12.63;;;6.57;;
14181;SDS011;7171;50.936;6.764;2024-03-08T10:14:42;9.87;;;6.87;;
14181;SDS011;7171;50.936;6.764;2024-03-08T10:17:09;8.87;;;6.37;;
14181;SDS011;7171;50.936;6.764;2024-03-08T10:19:36;13.47;;;7.30;;
14181;SDS011;7171;50.936;6.764;2024-03-08T10:22:05;8.93;;;5.70;;
14181;SDS011;7171;50.936;6.764;2024-03-08T10:24:32;8.57;;;6.27;;
14181;SDS011;7171;50.936;6.764;2024-03-08T10:26:59;8.77;;;6.13;;
14181;SDS011;7171;50.936;6.764;2024-03-08T10:29:29;11.33;;;6.43;;
14181;SDS011;7171;50.936;6.764;2024-03-08T10:31:56;7.37;;;5.40;;
14181;SDS011;7171;50.936;6.764;2024-03-08T10:34:23;6.50;;;4.70;;
14181;SDS011;7171;50.936;6.764;2024-03-08T10:36:50;7.43;;;6.10;;
14181;SDS011;7171;50.936;6.764;2024-03-08T10:39:21;8.43;;;5.23;;
14181;SDS011;7171;50.936;6.764;2024-03-08T10:41:52;5.67;;;4.57;;
14181;SDS011;7171;50.936;6.764;2024-03-08T10:44:28;6.03;;;4.43;;
14181;SDS011;7171;50.936;6.764;2024-03-08T10:47:02;8.83;;;4.90;;
14181;SDS011;7171;50.936;6.764;2024-03-08T10:49:39;6.60;;;4.97;;
14181;SDS011;7171;50.936;6.764;2024-03-08T10:52:13;7.13;;;5.03;;
14181;SDS011;7171;50.936;6.764;2024-03-08T10:54:43;7.03;;;4.67;;
14181;SDS011;7171;50.936;6.764;2024-03-08T10:57:12;7.40;;;5.03;;
14181;SDS011;7171;50.936;6.764;2024-03-08T10:59:40;7.97;;;5.63;;
14181;SDS011;7171;50.936;6.764;2024-03-08T11:02:08;6.90;;;4.43;;
14181;SDS011;7171;50.936;6.764;2024-03-08T11:04:37;7.03;;;5.23;;
14181;SDS011;7171;50.936;6.764;2024-03-08T11:07:04;7.13;;;4.97;;
14181;SDS011;7171;50.936;6.764;2024-03-08T11:09:32;6.47;;;4.85;;
14181;SDS011;7171;50.936;6.764;2024-03-08T11:12:21;10.37;;;6.27;;
14181;SDS011;7171;50.936;6.764;2024-03-08T11:14:51;6.83;;;5.07;;
14181;SDS011;7171;50.936;6.764;2024-03-08T11:17:22;6.60;;;5.10;;
14181;SDS011;7171;50.936;6.764;2024-03-08T11:19:52;7.10;;;4.67;;
14181;SDS011;7171;50.936;6.764;2024-03-08T11:22:26;12.85;;;5.13;;
14181;SDS011;7171;50.936;6.764;2024-03-08T11:24:58;13.00;;;6.00;;
14181;SDS011;7171;50.936;6.764;2024-03-08T11:27:29;8.77;;;5.07;;
14181;SDS011;7171;50.936;6.764;2024-03-08T11:30:01;8.07;;;4.90;;
14181;SDS011;7171;50.936;6.764;2024-03-08T11:32:35;8.10;;;4.67;;
14181;SDS011;7171;50.936;6.764;2024-03-08T11:35:05;6.85;;;5.05;;
14181;SDS011;7171;50.936;6.764;2024-03-08T11:37:33;8.35;;;5.15;;
14181;SDS011;7171;50.936;6.764;2024-03-08T11:40:01;5.63;;;4.80;;
14181;SDS011;7171;50.936;6.764;2024-03-08T11:42:31;10.52;;;6.00;;
14181;SDS011;7171;50.936;6.764;2024-03-08T11:44:57;9.35;;;5.43;;
14181;SDS011;7171;50.936;6.764;2024-03-08T11:47:24;8.32;;;4.78;;
14181;SDS011;7171;50.936;6.764;2024-03-08T11:49:51;6.00;;;4.97;;
14181;SDS011;7171;50.936;6.764;2024-03-08T11:52:18;7.43;;;5.15;;
14181;SDS011;7171;50.936;6.764;2024-03-08T11:54:48;8.20;;;5.22;;
14181;SDS011;7171;50.936;6.764;2024-03-08T11:57:18;6.25;;;4.40;;
14181;SDS011;7171;50.936;6.764;2024-03-08T11:59:50;7.53;;;4.35;;
14181;SDS011;7171;50.936;6.764;2024-03-08T12:02:17;7.82;;;5.07;;
14181;SDS011;7171;50.936;6.764;2024-03-08T12:04:44;8.63;;;5.00;;
14181;SDS011;7171;50.936;6.764;2024-03-08T12:07:12;9.02;;;5.38;;
14181;SDS011;7171;50.936;6.764;2024-03-08T12:09:39;9.38;;;5.68;;
14181;SDS011;7171;50.936;6.764;2024-03-08T12:12:11;11.32;;;5.70;;
14181;SDS011;7171;50.936;6.764;2024-03-08T12:14:38;6.70;;;5.10;;
14181;SDS011;7171;50.936;6.764;2024-03-08T12:17:07;7.22;;;5.07;;
14181;SDS011;7171;50.936;6.764;2024-03-08T12:19:35;8.82;;;5.30;;
14181;SDS011;7171;50.936;6.764;2024-03-08T12:22:07;6.55;;;4.68;;
14181;SDS011;7171;50.936;6.764;2024-03-08T12:24:35;8.30;;;5.00;;
14181;SDS011;7171;50.936;6.764;2024-03-08T12:27:17;8.50;;;5.22;;
14181;SDS011;7171;50.936;6.764;2024-03-08T12:29:44;8.35;;;5.47;;
14181;SDS011;7171;50.936;6.764;2024-03-08T12:32:13;7.40;;;4.90;;
14181;SDS011;7171;50.936;6.764;2024-03-08T12:34:40;7.43;;;5.05;;
14181;SDS011;7171;50.936;6.764;2024-03-08T12:37:06;6.20;;;5.07;;
14181;SDS011;7171;50.936;6.764;2024-03-08T12:39:34;6.68;;;4.97;;
14181;SDS011;7171;50.936;6.764;2024-03-08T12:42:02;9.60;;;4.93;;
14181;SDS011;7171;50.936;6.764;2024-03-08T12:44:29;7.32;;;5.05;;
14181;SDS011;7171;50.936;6.764;2024-03-08T12:46:55;10.38;;;5.80;;
14181;SDS011;7171;50.936;6.764;2024-03-08T12:49:25;8.93;;;5.45;;
14181;SDS011;7171;50.936;6.764;2024-03-08T12:51:52;7.30;;;5.75;;
14181;SDS011;7171;50.936;6.764;2024-03-08T12:54:19;6.13;;;4.88;;
14181;SDS011;7171;50.936;6.764;2024-03-08T12:56:48;6.55;;;4.60;;
14181;SDS011;7171;50.936;6.764;2024-03-08T12:59:18;7.85;;;4.72;;
14181;SDS011;7171;50.936;6.764;2024-03-08T13:01:46;8.85;;;5.00;;
14181;SDS011;7171;50.936;6.764;2024-03-08T13:04:13;6.13;;;4.15;;
14181;SDS011;7171;50.936;6.764;2024-03-08T13:06:41;7.15;;;4.78;;
14181;SDS011;7171;50.936;6.764;2024-03-08T13:09:08;7.30;;;5.18;;
14181;SDS011;7171;50.936;6.764;2024-03-08T13:11:35;7.75;;;4.65;;
14181;SDS011;7171;50.936;6.764;2024-03-08T13:14:02;6.82;;;4.70;;
14181;SDS011;7171;50.936;6.764;2024-03-08T13:16:30;7.43;;;4.68;;
14181;SDS011;7171;50.936;6.764;2024-03-08T13:18:57;7.32;;;4.47;;
14181;SDS011;7171;50.936;6.764;2024-03-08T13:21:24;7.03;;;4.72;;
14181;SDS011;7171;50.936;6.764;2024-03-08T13:23:52;7.45;;;4.97;;
14181;SDS011;7171;50.936;6.764;2024-03-08T13:26:20;10.25;;;5.05;;
14181;SDS011;7171;50.936;6.764;2024-03-08T13:28:47;7.82;;;4.55;;
14181;SDS011;7171;50.936;6.764;2024-03-08T13:31:18;7.75;;;5.25;;
14181;SDS011;7171;50.936;6.764;2024-03-08T13:33:45;6.45;;;4.57;;
14181;SDS011;7171;50.936;6.764;2024-03-08T13:36:12;7.97;;;5.03;;
14181;SDS011;7171;50.936;6.764;2024-03-08T13:38:41;6.28;;;4.65;;
14181;SDS011;7171;50.936;6.764;2024-03-08T13:41:10;6.57;;;5.05;;
14181;SDS011;7171;50.936;6.764;2024-03-08T13:43:39;5.47;;;3.63;;
14181;SDS011;7171;50.936;6.764;2024-03-08T13:46:06;10.20;;;4.45;;
14181;SDS011;7171;50.936;6.764;2024-03-08T13:48:35;8.55;;;4.97;;
14181;SDS011;7171;50.936;6.764;2024-03-08T13:51:02;7.25;;;4.55;;
14181;SDS011;7171;50.936;6.764;2024-03-08T13:53:29;6.22;;;4.03;;
14181;SDS011;7171;50.936;6.764;2024-03-08T13:55:57;4.65;;;3.63;;
14181;SDS011;7171;50.936;6.764;2024-03-08T13:58:25;5.55;;;4.35;;
14181;SDS011;7171;50.936;6.764;2024-03-08T14:00:51;6.18;;;4.20;;
14181;SDS011;7171;50.936;6.764;2024-03-08T14:03:18;7.65;;;4.65;;
14181;SDS011;7171;50.936;6.764;2024-03-08T14:05:46;5.90;;;4.25;;
14181;SDS011;7171;50.936;6.764;2024-03-08T14:08:13;6.68;;;4.63;;
14181;SDS011;7171;50.936;6.764;2024-03-08T14:10:41;6.20;;;4.30;;
14181;SDS011;7171;50.936;6.764;2024-03-08T14:13:08;7.43;;;4.47;;
14181;SDS011;7171;50.936;6.764;2024-03-08T14:15:38;9.88;;;4.65;;
14181;SDS011;7171;50.936;6.764;2024-03-08T14:18:07;5.13;;;4.15;;
14181;SDS011;7171;50.936;6.764;2024-03-08T14:20:34;5.68;;;3.90;;
14181;SDS011;7171;50.936;6.764;2024-03-08T14:23:00;9.10;;;4.95;;
14181;SDS011;7171;50.936;6.764;2024-03-08T14:25:28;6.25;;;5.00;;
14181;SDS011;7171;50.936;6.764;2024-03-08T14:27:55;6.57;;;4.43;;
14181;SDS011;7171;50.936;6.764;2024-03-08T14:30:23;5.95;;;4.15;;
14181;SDS011;7171;50.936;6.764;2024-03-08T14:33:01;4.85;;;4.30;;
14181;SDS011;7171;50.936;6.764;2024-03-08T14:35:30;9.07;;;4.93;;
14181;SDS011;7171;50.936;6.764;2024-03-08T14:37:57;6.72;;;4.05;;
14181;SDS011;7171;50.936;6.764;2024-03-08T14:40:25;9.75;;;4.60;;
14181;SDS011;7171;50.936;6.764;2024-03-08T14:42:52;7.00;;;4.88;;
14181;SDS011;7171;50.936;6.764;2024-03-08T14:45:19;6.30;;;4.00;;
14181;SDS011;7171;50.936;6.764;2024-03-08T14:47:46;7.82;;;4.30;;
14181;SDS011;7171;50.936;6.764;2024-03-08T14:50:17;5.95;;;4.28;;
14181;SDS011;7171;50.936;6.764;2024-03-08T14:52:44;5.57;;;3.63;;
14181;SDS011;7171;50.936;6.764;2024-03-08T14:55:13;4.22;;;3.75;;
14181;SDS011;7171;50.936;6.764;2024-03-08T14:57:40;7.45;;;4.35;;